THUNDERSTORM

Not for real navigation. The accuracy of this data is not assured See disclaimer for more information



ICAO NAME COUNTRY WIND Kt GUST Kt VIS m TEMP/DEW C BARO METAR
KMLP MULLAN PASS VOR ID United States 7 0 1200 -4/-4 29.88 KMLP 240437Z AUTO 16007KT 100V230 0.75SM -SN BR OVC002 M04/M04 A2988 RMK AO2 P0001 T10391044 TS
PABA Barter Island, Barter Island L AK United States 20 0 1600 -26/-28 30.31 PABA 240457Z AUTO 26020KT 1 0.25SM -SN SCT025 BKN034 OVC044 M26/M28 A3031 RMK AO2 P0000 FZRANO TS
KART WATERTOWN INTERNATIONAL AIRPO NY United States 22 29 1600 -3/-4 29.67 KART 240456Z AUTO 26022G29KT 1 0.5SM -SN BR FEW023 BKN036 OVC046 M03/M04 A2967 RMK AO2 PK WND 27039/
CWSA Sable Island, N. S. Canada 24 32 3200 7/7 29.86 CWSA 240442Z AUTO 16024G32KT 2 0.5SM BR OVC021 07/07 A2986 RMK PCPN 0.5MM PAST HR TS/LTNG TEMPO UNAV
ETAD Spangdahlem Germany 13 0 6000 8/8 30.14 ETAD 240456Z AUTO 22013KT 6000 BR OVC002 08/08 A3014 RMK AO2 SLP205 T00780075 TS $

Show more